Time;durP1;ratioP1;P1;durP2;ratioP2;P2;SDS_P1;SDS_P2;PMS_P1;PMS_P2;Temp;Humidity;BMP_temperature;BMP_pressure;BME280_temperature;BME280_humidity;BME280_pressure;Samples;Min_cycle;Max_cycle;Signal;HPM_P1;HPM_P2
2023/10/29 00:00:48;;;;;;;2.83;2.53;;;;;;;11.74;72.76;96621.75;5049228;28;20201;-76
2023/10/29 00:03:15;;;;;;;3.85;2.50;;;;;;;11.68;72.86;96622.75;5048580;28;20221;-77
2023/10/29 00:05:43;;;;;;;2.78;2.50;;;;;;;11.69;72.87;96624.38;5049049;28;20196;-77
2023/10/29 00:08:09;;;;;;;8.10;3.17;;;;;;;11.65;73.44;96620.50;5048160;28;20274;-76
2023/10/29 00:10:36;;;;;;;2.67;2.47;;;;;;;11.67;73.20;96626.50;5047934;28;20280;-76
2023/10/29 00:13:04;;;;;;;4.70;3.13;;;;;;;11.66;73.39;96622.16;5049827;28;20419;-76
2023/10/29 00:15:31;;;;;;;5.57;3.03;;;;;;;11.66;73.68;96627.59;5046424;28;20199;-76
2023/10/29 00:17:58;;;;;;;5.50;3.17;;;;;;;11.62;73.66;96629.13;5050504;28;20283;-76
2023/10/29 00:20:24;;;;;;;4.18;3.22;;;;;;;11.49;74.30;96638.38;5047702;28;20204;-76
2023/10/29 00:22:52;;;;;;;3.25;2.92;;;;;;;11.59;73.91;96627.72;5048088;28;20243;-77
2023/10/29 00:25:19;;;;;;;4.93;3.30;;;;;;;11.64;73.69;96625.13;5049474;28;20205;-76
2023/10/29 00:27:45;;;;;;;3.42;2.95;;;;;;;11.71;73.57;96630.34;5048859;28;20224;-76
2023/10/29 00:30:12;;;;;;;4.20;2.97;;;;;;;11.73;73.36;96631.75;5046327;28;20205;-76
2023/10/29 00:32:39;;;;;;;2.63;2.40;;;;;;;11.66;73.29;96627.59;5044707;28;20308;-76
2023/10/29 00:35:07;;;;;;;4.28;2.88;;;;;;;11.48;73.81;96623.19;5045445;28;20232;-76
2023/10/29 00:37:33;;;;;;;3.75;3.45;;;;;;;11.45;74.32;96629.91;5046863;28;20235;-76
2023/10/29 00:40:01;;;;;;;3.47;2.88;;;;;;;11.53;74.73;96617.84;5042877;28;20218;-77
2023/10/29 00:42:28;;;;;;;3.40;3.10;;;;;;;11.48;74.65;96619.63;5048241;28;20225;-76
2023/10/29 00:44:54;;;;;;;3.25;2.80;;;;;;;11.44;74.88;96612.00;5046352;28;20672;-76
2023/10/29 00:47:21;;;;;;;2.95;2.60;;;;;;;11.26;75.14;96631.16;5047856;28;20276;-76
2023/10/29 00:49:48;;;;;;;4.13;3.03;;;;;;;11.14;76.63;96622.25;5045767;28;20197;-76
2023/10/29 00:52:15;;;;;;;3.53;2.90;;;;;;;11.19;76.03;96624.25;5049262;28;20324;-77
2023/10/29 00:54:41;;;;;;;3.25;2.95;;;;;;;11.34;75.46;96629.97;5049089;28;20185;-76
2023/10/29 00:57:09;;;;;;;3.22;2.92;;;;;;;11.27;75.73;96630.09;5045929;28;20289;-76
2023/10/29 00:59:35;;;;;;;4.60;3.10;;;;;;;11.23;75.43;96623.53;5045662;28;21650;-77
2023/10/29 01:02:02;;;;;;;4.00;3.03;;;;;;;11.30;75.50;96626.91;5047721;28;20219;-76
2023/10/29 01:04:29;;;;;;;3.85;3.10;;;;;;;11.27;75.31;96621.16;5047179;28;20239;-76
2023/10/29 01:06:55;;;;;;;3.85;3.03;;;;;;;11.33;75.10;96621.03;5048776;28;20300;-76
2023/10/29 01:09:22;;;;;;;2.50;2.30;;;;;;;11.38;74.88;96612.97;5046963;28;20230;-77
2023/10/29 01:11:48;;;;;;;2.97;2.67;;;;;;;11.28;75.04;96598.44;5049150;28;20220;-76
2023/10/29 01:14:16;;;;;;;5.13;3.10;;;;;;;11.49;74.52;96589.59;5047886;28;20201;-76
2023/10/29 01:16:42;;;;;;;2.78;2.45;;;;;;;11.43;74.17;96599.50;5043650;28;20505;-76
2023/10/29 01:19:09;;;;;;;3.65;3.03;;;;;;;11.47;74.08;96607.97;5046770;28;20228;-76
2023/10/29 01:21:36;;;;;;;3.75;2.80;;;;;;;11.43;74.44;96615.78;5048116;28;20215;-76
2023/10/29 01:24:02;;;;;;;4.47;2.80;;;;;;;11.43;74.61;96609.53;5048194;28;20653;-76
2023/10/29 01:26:29;;;;;;;3.15;2.75;;;;;;;11.43;74.28;96596.81;5047287;28;20197;-76
2023/10/29 01:28:55;;;;;;;3.47;2.70;;;;;;;11.38;74.52;96591.28;5047888;28;20311;-76
2023/10/29 01:31:23;;;;;;;3.45;3.15;;;;;;;11.50;74.47;96582.28;5047731;28;20264;-76
2023/10/29 01:33:49;;;;;;;2.60;2.40;;;;;;;11.42;74.16;96581.63;5042163;28;20193;-76
2023/10/29 01:36:16;;;;;;;3.65;2.80;;;;;;;11.35;74.35;96583.69;5046770;28;20215;-76
2023/10/29 01:38:42;;;;;;;4.68;2.75;;;;;;;11.23;74.49;96582.91;5046713;28;20215;-76
2023/10/29 01:41:09;;;;;;;4.65;2.65;;;;;;;11.17;75.08;96575.75;5043156;28;20584;-76
2023/10/29 01:43:35;;;;;;;3.75;2.60;;;;;;;11.21;74.55;96576.91;5047379;28;20215;-76
2023/10/29 01:46:02;;;;;;;5.60;2.83;;;;;;;11.27;73.99;96573.22;5044353;28;20679;-76
2023/10/29 01:48:29;;;;;;;3.83;2.97;;;;;;;11.31;74.16;96574.38;5047400;28;20227;-76
2023/10/29 01:51:02;;;;;;;4.75;2.70;;;;;;;11.22;74.23;96556.88;5048516;28;20203;-76
2023/10/29 01:53:28;;;;;;;3.35;2.28;;;;;;;11.24;73.95;96537.69;5046983;28;20205;-76
2023/10/29 01:55:55;;;;;;;2.95;2.47;;;;;;;11.19;73.64;96533.00;5044469;28;20203;-76
2023/10/29 01:58:21;;;;;;;2.75;2.25;;;;;;;11.20;73.56;96522.97;5044156;28;20209;-76
2023/10/29 02:00:48;;;;;;;4.25;2.58;;;;;;;11.18;73.23;96535.94;5047379;28;20205;-75
2023/10/29 02:03:15;;;;;;;3.65;2.10;;;;;;;11.14;73.63;96529.38;5046451;28;20229;-76
2023/10/29 02:05:43;;;;;;;2.33;2.13;;;;;;;11.16;73.60;96528.06;5047780;28;20289;-76
2023/10/29 02:08:09;;;;;;;2.97;2.78;;;;;;;11.20;73.37;96529.22;5044601;28;20576;-77
2023/10/29 02:10:36;;;;;;;2.50;2.30;;;;;;;11.12;73.57;96524.19;5048048;28;20564;-77
2023/10/29 02:13:02;;;;;;;3.45;2.17;;;;;;;11.03;73.75;96528.38;5047512;28;20252;-76
2023/10/29 02:15:29;;;;;;;4.60;2.70;;;;;;;10.90;74.24;96528.66;5047935;28;20231;-76
2023/10/29 02:17:55;;;;;;;3.42;2.17;;;;;;;10.90;74.45;96520.53;5041430;28;20196;-76
2023/10/29 02:20:22;;;;;;;3.15;2.30;;;;;;;10.87;73.92;96510.19;5046131;28;20299;-76
2023/10/29 02:22:49;;;;;;;2.60;2.40;;;;;;;10.97;73.57;96507.69;5047359;28;20228;-76
2023/10/29 02:25:16;;;;;;;4.25;2.05;;;;;;;11.08;72.78;96504.06;5046250;28;20205;-76
2023/10/29 02:27:42;;;;;;;3.38;2.20;;;;;;;11.10;72.74;96510.91;5046581;28;20262;-76
2023/10/29 02:30:10;;;;;;;3.60;2.20;;;;;;;11.14;72.55;96513.94;5043979;28;20263;-75
2023/10/29 02:32:37;;;;;;;4.75;2.20;;;;;;;11.11;72.65;96506.31;5048342;28;20209;-76
2023/10/29 02:35:04;;;;;;;2.30;2.10;;;;;;;11.21;72.30;96525.44;5045065;28;20197;-76
2023/10/29 02:37:30;;;;;;;3.05;2.00;;;;;;;11.28;71.94;96509.88;5058856;28;20215;-76
2023/10/29 02:39:58;;;;;;;3.60;2.22;;;;;;;11.33;71.45;96509.16;5047051;28;20201;-76
2023/10/29 02:42:25;;;;;;;3.35;2.05;;;;;;;11.27;71.74;96502.81;5045949;28;20243;-76
2023/10/29 02:44:52;;;;;;;1.90;1.80;;;;;;;11.30;71.32;96505.03;5046291;28;20201;-76
2023/10/29 02:47:18;;;;;;;2.20;1.88;;;;;;;11.31;71.64;96503.97;5042922;28;20212;-76
2023/10/29 02:49:45;;;;;;;2.45;1.70;;;;;;;11.27;71.00;96493.88;5047337;28;20229;-76
2023/10/29 02:52:12;;;;;;;4.18;1.80;;;;;;;11.35;71.29;96502.41;5050856;28;20572;-76
2023/10/29 02:54:38;;;;;;;1.70;1.60;;;;;;;11.40;70.72;96497.06;5051404;28;20212;-76
2023/10/29 02:57:06;;;;;;;1.85;1.60;;;;;;;11.37;70.36;96508.38;5043955;28;20205;-76
2023/10/29 02:59:33;;;;;;;3.08;1.85;;;;;;;11.45;70.39;96501.75;5049913;28;20193;-76
2023/10/29 03:01:59;;;;;;;2.20;1.85;;;;;;;11.50;69.24;96496.41;5051181;28;20217;-76
2023/10/29 03:04:25;;;;;;;2.45;1.70;;;;;;;11.60;68.31;96479.50;5052273;28;20211;-76
2023/10/29 03:06:52;;;;;;;3.42;1.75;;;;;;;11.71;67.67;96475.88;5049655;28;20308;-76
2023/10/29 03:09:18;;;;;;;2.95;1.60;;;;;;;11.79;67.40;96472.78;5050153;28;20875;-75
2023/10/29 03:11:45;;;;;;;1.83;1.60;;;;;;;11.80;66.78;96473.59;5051610;28;20515;-76
2023/10/29 03:14:12;;;;;;;1.95;1.60;;;;;;;11.89;66.33;96481.06;5047898;28;20587;-76
2023/10/29 03:16:39;;;;;;;1.52;1.30;;;;;;;11.96;65.71;96478.19;5048223;28;20193;-76
2023/10/29 03:19:05;;;;;;;3.75;1.60;;;;;;;12.03;64.94;96489.66;5048709;28;20205;-76
2023/10/29 03:21:32;;;;;;;3.58;1.90;;;;;;;12.18;64.33;96483.63;5050290;28;20221;-76
2023/10/29 03:23:58;;;;;;;1.73;1.25;;;;;;;12.12;64.46;96477.31;5049632;28;20208;-76
2023/10/29 03:26:25;;;;;;;3.05;1.42;;;;;;;11.98;64.87;96476.06;5049982;28;20223;-76
2023/10/29 03:28:52;;;;;;;1.77;1.58;;;;;;;12.05;65.05;96482.91;5050097;28;20934;-76
2023/10/29 03:31:20;;;;;;;1.92;1.60;;;;;;;12.02;65.22;96488.03;5050233;28;20335;-76
2023/10/29 03:33:47;;;;;;;2.45;1.60;;;;;;;11.95;65.60;96484.69;5047600;28;20292;-76
2023/10/29 03:36:13;;;;;;;2.05;1.45;;;;;;;11.99;65.34;96489.38;5047925;28;20587;-76
2023/10/29 03:38:40;;;;;;;1.88;1.70;;;;;;;11.87;65.74;96491.34;5045222;28;20663;-76
2023/10/29 03:41:06;;;;;;;1.95;1.40;;;;;;;11.96;65.83;96489.03;5049066;28;20300;-76
2023/10/29 03:43:33;;;;;;;2.55;1.20;;;;;;;11.97;65.62;96490.69;5049440;28;20209;-76
2023/10/29 03:46:00;;;;;;;1.45;1.23;;;;;;;12.00;65.53;96493.72;5050265;28;20207;-76
2023/10/29 03:48:28;;;;;;;1.70;1.27;;;;;;;11.91;65.66;96491.66;5049045;28;20212;-76
2023/10/29 03:50:54;;;;;;;1.60;1.40;;;;;;;11.88;65.74;96497.59;5048527;28;20219;-76
2023/10/29 03:53:21;;;;;;;1.85;1.33;;;;;;;11.83;66.10;96497.50;5043394;28;20540;-76
2023/10/29 03:55:49;;;;;;;1.98;1.63;;;;;;;11.81;66.15;96514.00;5049065;28;20201;-76
2023/10/29 03:58:16;;;;;;;2.80;1.70;;;;;;;11.68;66.29;96503.50;5046488;28;20209;-76
2023/10/29 04:00:43;;;;;;;1.77;1.50;;;;;;;11.59;66.15;96500.38;5047231;28;20676;-76
2023/10/29 04:03:09;;;;;;;1.67;1.33;;;;;;;11.72;65.34;96499.19;5045591;28;20613;-76
2023/10/29 04:05:37;;;;;;;1.60;1.40;;;;;;;11.78;64.53;96500.97;5048987;28;20221;-76
2023/10/29 04:08:04;;;;;;;1.60;1.40;;;;;;;11.95;63.12;96498.25;5048471;28;20205;-76
2023/10/29 04:10:31;;;;;;;2.45;1.30;;;;;;;11.99;61.50;96497.50;5047290;28;20225;-76
2023/10/29 04:12:57;;;;;;;1.42;1.25;;;;;;;12.14;60.82;96502.31;5044500;28;20217;-75
2023/10/29 04:15:24;;;;;;;1.10;1.00;;;;;;;12.23;60.57;96505.41;5048255;28;20212;-76
2023/10/29 04:17:50;;;;;;;1.92;1.25;;;;;;;12.25;60.60;96495.13;5047182;28;20204;-76
2023/10/29 04:20:16;;;;;;;2.67;1.35;;;;;;;12.32;60.25;96496.59;5049622;28;20197;-76
2023/10/29 04:22:45;;;;;;;1.75;1.27;;;;;;;12.28;60.65;96500.06;5047945;28;20650;-76
2023/10/29 04:25:11;;;;;;;1.75;1.15;;;;;;;12.28;60.84;96497.34;5050385;28;20288;-76
2023/10/29 04:27:38;;;;;;;1.42;1.33;;;;;;;12.15;61.44;96486.84;5047933;28;20506;-76
2023/10/29 04:30:05;;;;;;;3.10;1.60;;;;;;;12.21;61.96;96483.16;5046264;28;20220;-76
2023/10/29 04:32:32;;;;;;;1.33;1.20;;;;;;;12.10;62.29;96469.44;5048476;28;20228;-76
2023/10/29 04:34:58;;;;;;;1.52;1.20;;;;;;;12.03;62.68;96479.63;5047970;28;20284;-76
2023/10/29 04:37:25;;;;;;;2.85;1.33;;;;;;;11.98;62.59;96481.47;5046848;28;20288;-77
2023/10/29 04:39:52;;;;;;;1.50;1.40;;;;;;;12.00;62.53;96484.75;5049841;28;20235;-76
2023/10/29 04:42:19;;;;;;;2.08;1.48;;;;;;;11.98;62.58;96482.31;5046962;28;20588;-76
2023/10/29 04:44:45;;;;;;;1.40;1.30;;;;;;;11.96;62.77;96473.59;5049054;28;20649;-76
2023/10/29 04:47:12;;;;;;;1.98;1.20;;;;;;;12.00;62.75;96482.06;5050021;28;20197;-77
2023/10/29 04:49:38;;;;;;;1.85;1.10;;;;;;;11.96;62.77;96473.59;5044785;28;20244;-76
2023/10/29 04:52:05;;;;;;;3.97;1.45;;;;;;;11.92;62.89;96472.44;5047545;28;20256;-76
2023/10/29 04:54:31;;;;;;;2.10;1.38;;;;;;;11.90;63.00;96474.59;5047984;28;20204;-76
2023/10/29 04:56:59;;;;;;;2.50;1.50;;;;;;;11.95;62.55;96482.78;5048509;28;20197;-76
2023/10/29 04:59:26;;;;;;;1.83;1.35;;;;;;;11.88;63.00;96486.75;5048534;28;20207;-76
2023/10/29 05:01:52;;;;;;;1.42;1.33;;;;;;;11.96;62.85;96470.88;5042518;28;20221;-76
2023/10/29 05:04:19;;;;;;;1.52;1.10;;;;;;;11.95;63.12;96466.53;5046780;28;20204;-76
2023/10/29 05:06:45;;;;;;;1.70;1.33;;;;;;;11.88;63.45;96476.72;5047539;28;20319;-76
2023/10/29 05:09:11;;;;;;;2.28;1.63;;;;;;;11.92;63.41;96477.88;5050091;28;20227;-76
2023/10/29 05:11:38;;;;;;;2.25;1.65;;;;;;;11.93;63.52;96468.66;5048194;28;20221;-76
2023/10/29 05:14:06;;;;;;;1.48;1.38;;;;;;;11.87;63.92;96469.66;5047595;28;20197;-77
2023/10/29 05:16:32;;;;;;;3.30;1.42;;;;;;;11.95;63.86;96452.97;5049000;28;20189;-77
2023/10/29 05:18:59;;;;;;;1.92;1.27;;;;;;;11.90;64.05;96455.59;5043722;28;20205;-76
2023/10/29 05:21:26;;;;;;;2.40;1.50;;;;;;;11.87;63.92;96453.38;5045611;28;20315;-76
2023/10/29 05:23:52;;;;;;;3.45;1.52;;;;;;;11.99;63.89;96456.81;5047207;28;20205;-76
2023/10/29 05:26:19;;;;;;;2.15;1.33;;;;;;;11.87;63.84;96455.28;5045575;28;20201;-76
2023/10/29 05:28:45;;;;;;;1.50;1.20;;;;;;;11.89;63.56;96455.84;5049708;28;20208;-76
2023/10/29 05:31:13;;;;;;;1.40;1.30;;;;;;;11.94;63.19;96459.47;5046486;28;20300;-76
2023/10/29 05:33:39;;;;;;;1.80;1.25;;;;;;;11.93;63.20;96460.53;5047082;28;20641;-77
2023/10/29 05:36:07;;;;;;;1.77;1.30;;;;;;;11.90;63.45;96457.50;5046237;28;20205;-76
2023/10/29 05:38:33;;;;;;;1.40;1.17;;;;;;;11.96;63.17;96457.31;5042656;28;20205;-76
2023/10/29 05:41:00;;;;;;;2.83;1.30;;;;;;;11.89;63.32;96459.38;5046063;28;20213;-76
2023/10/29 05:43:26;;;;;;;2.75;1.40;;;;;;;11.83;63.65;96467.69;5046097;28;20209;-76
2023/10/29 05:45:52;;;;;;;2.50;1.30;;;;;;;11.95;63.14;96471.94;5047299;28;20219;-76
2023/10/29 05:48:20;;;;;;;4.05;1.40;;;;;;;12.03;63.08;96465.25;5046841;28;20200;-76
2023/10/29 05:50:47;;;;;;;1.90;1.63;;;;;;;11.98;63.09;96471.44;5043040;28;20336;-76
2023/10/29 05:53:13;;;;;;;1.55;1.10;;;;;;;12.07;62.85;96480.78;5047332;28;20676;-76
2023/10/29 05:55:40;;;;;;;1.80;1.25;;;;;;;12.10;62.45;96479.47;5043060;28;20219;-76
2023/10/29 05:58:07;;;;;;;1.60;1.40;;;;;;;12.17;61.95;96479.28;5046018;28;20197;-75
2023/10/29 06:00:33;;;;;;;2.00;1.30;;;;;;;12.18;61.61;96472.78;5044939;28;20374;-76
2023/10/29 06:02:59;;;;;;;1.85;1.35;;;;;;;12.39;61.20;96463.84;5043831;28;20652;-76
2023/10/29 06:05:28;;;;;;;1.30;1.20;;;;;;;12.41;61.20;96467.94;5045185;28;20212;-76
2023/10/29 06:07:54;;;;;;;2.10;1.40;;;;;;;12.43;61.41;96462.25;5044806;28;20193;-77
2023/10/29 06:10:21;;;;;;;2.00;1.25;;;;;;;12.35;61.45;96471.66;5047357;28;20557;-76
2023/10/29 06:12:47;;;;;;;2.28;1.15;;;;;;;12.29;61.21;96469.97;5047284;28;20568;-76
2023/10/29 06:15:14;;;;;;;1.40;1.20;;;;;;;12.34;61.31;96480.91;5046881;28;20529;-77
2023/10/29 06:17:42;;;;;;;2.10;1.30;;;;;;;12.27;61.12;96482.97;5041929;28;20201;-77
2023/10/29 06:20:11;;;;;;;2.40;1.35;;;;;;;12.34;61.03;96499.06;5047884;28;20189;-77
2023/10/29 06:22:39;;;;;;;2.78;1.25;;;;;;;12.41;61.23;96502.38;5044472;28;20394;-76
2023/10/29 06:25:06;;;;;;;1.58;1.17;;;;;;;12.58;60.99;96508.59;5039330;28;20219;-76
2023/10/29 06:27:33;;;;;;;1.70;1.05;;;;;;;12.70;60.47;96511.97;5045556;28;20215;-76
2023/10/29 06:29:59;;;;;;;1.42;1.33;;;;;;;12.60;60.89;96516.50;5046919;28;20224;-77
2023/10/29 06:32:26;;;;;;;2.35;1.60;;;;;;;12.37;60.67;96512.91;5045745;28;20213;-77
2023/10/29 06:34:52;;;;;;;1.70;1.45;;;;;;;12.33;61.17;96516.41;5044454;28;20200;-77
2023/10/29 06:37:19;;;;;;;1.48;1.38;;;;;;;12.39;61.41;96521.63;5045988;28;20207;-77
2023/10/29 06:39:47;;;;;;;2.42;1.50;;;;;;;12.35;61.67;96520.50;5040599;28;20299;-75
2023/10/29 06:42:13;;;;;;;1.98;1.27;;;;;;;12.44;61.35;96529.03;5046664;28;20300;-77
2023/10/29 06:44:39;;;;;;;2.17;1.38;;;;;;;12.51;61.03;96529.66;5043114;28;20204;-77
2023/10/29 06:47:07;;;;;;;1.73;1.40;;;;;;;12.59;61.05;96542.81;5046673;28;20207;-78
2023/10/29 06:49:34;;;;;;;2.90;1.45;;;;;;;12.50;61.28;96533.44;5046930;28;20284;-77
2023/10/29 06:52:00;;;;;;;2.13;1.17;;;;;;;12.47;61.08;96555.66;5046410;28;20311;-77
2023/10/29 06:54:27;;;;;;;1.42;1.33;;;;;;;12.59;60.74;96547.41;5044765;28;20201;-77
2023/10/29 06:56:54;;;;;;;2.15;1.25;;;;;;;12.58;59.98;96554.72;5039557;28;20193;-75
2023/10/29 06:59:21;;;;;;;2.15;1.40;;;;;;;12.57;60.38;96561.22;5036350;28;20207;-80
2023/10/29 07:01:49;;;;;;;1.50;1.20;;;;;;;12.65;60.02;96568.13;5041031;28;20225;-77
2023/10/29 07:04:16;;;;;;;1.77;1.52;;;;;;;12.61;60.36;96581.38;5045977;28;20200;-77
2023/10/29 07:06:42;;;;;;;2.30;1.48;;;;;;;12.62;60.05;96584.91;5045910;28;20199;-77
2023/10/29 07:09:09;;;;;;;1.88;1.20;;;;;;;12.75;59.97;96579.91;5043606;28;20224;-78
2023/10/29 07:11:36;;;;;;;1.30;1.20;;;;;;;12.77;60.26;96588.63;5040306;28;20319;-78
2023/10/29 07:14:04;;;;;;;3.22;1.65;;;;;;;12.85;60.41;96583.84;5045438;28;20232;-77
2023/10/29 07:16:31;;;;;;;2.13;1.30;;;;;;;12.85;59.40;96590.09;5044851;28;20197;-77
2023/10/29 07:18:57;;;;;;;1.67;1.40;;;;;;;12.91;59.63;96599.13;5044149;28;20211;-79
2023/10/29 07:21:24;;;;;;;1.77;1.52;;;;;;;13.04;58.85;96594.13;5041914;28;20231;-76
2023/10/29 07:23:50;;;;;;;2.03;1.83;;;;;;;13.00;58.88;96608.47;5043696;28;20945;-77
2023/10/29 07:26:17;;;;;;;2.10;1.60;;;;;;;13.21;58.15;96594.09;5039672;28;20200;-77
2023/10/29 07:28:43;;;;;;;1.50;1.40;;;;;;;13.18;57.51;96602.75;5042201;28;20206;-77
2023/10/29 07:31:12;;;;;;;1.63;1.20;;;;;;;13.27;56.66;96609.38;5055821;28;20229;-78
2023/10/29 07:33:39;;;;;;;1.87;1.47;;;;;;;13.58;56.83;96607.00;5046308;28;20457;-83
2023/10/29 07:36:07;;;;;;;1.50;1.40;;;;;;;13.60;56.17;96613.00;5037623;28;20454;-81
2023/10/29 07:38:33;;;;;;;1.60;1.40;;;;;;;13.68;56.57;96612.50;5039624;28;21024;-81
2023/10/29 07:41:00;;;;;;;1.87;1.40;;;;;;;13.72;57.06;96619.06;5041027;28;20559;-81
2023/10/29 07:43:26;;;;;;;1.70;1.60;;;;;;;13.82;57.12;96621.09;5041209;28;20457;-81
2023/10/29 07:45:53;;;;;;;1.40;1.30;;;;;;;13.66;58.19;96622.81;5036023;28;20453;-80
2023/10/29 07:48:21;;;;;;;1.40;1.30;;;;;;;13.66;56.39;96636.41;5037627;28;20457;-78
2023/10/29 07:50:51;;;;;;;1.57;1.10;;;;;;;13.75;56.67;96626.72;5041004;28;20488;-78
2023/10/29 07:53:17;;;;;;;1.57;1.13;;;;;;;13.62;56.58;96632.59;5042209;28;20452;-76
2023/10/29 07:55:44;;;;;;;2.47;1.07;;;;;;;13.61;58.13;96637.22;5040019;28;20473;-78
2023/10/29 07:58:10;;;;;;;1.90;1.27;;;;;;;13.75;57.39;96643.03;5039129;28;20468;-76
2023/10/29 08:00:37;;;;;;;2.50;1.50;;;;;;;13.80;57.31;96634.94;5046147;28;20468;-76
2023/10/29 08:03:04;;;;;;;2.40;1.00;;;;;;;13.94;57.70;96641.63;5048272;28;20433;-76
2023/10/29 08:05:32;;;;;;;2.13;1.30;;;;;;;14.36;56.68;96638.13;5048985;28;20476;-77
2023/10/29 08:08:01;;;;;;;1.30;1.20;;;;;;;14.36;56.09;96635.41;5046722;28;20457;-75
2023/10/29 08:10:27;;;;;;;1.77;1.10;;;;;;;14.30;56.03;96640.00;5049223;28;20491;-77
2023/10/29 08:12:54;;;;;;;1.23;1.13;;;;;;;14.29;56.35;96653.88;5050341;28;20945;-78
2023/10/29 08:15:20;;;;;;;1.87;1.33;;;;;;;14.30;56.04;96644.63;5043305;28;20978;-75
2023/10/29 08:17:47;;;;;;;1.90;1.50;;;;;;;14.54;55.85;96645.94;5043792;28;20448;-75
2023/10/29 08:20:14;;;;;;;2.77;1.20;;;;;;;14.52;55.70;96644.56;5046310;28;20850;-77
2023/10/29 08:22:42;;;;;;;1.90;1.33;;;;;;;14.50;56.08;96666.59;5041682;28;20448;-79
2023/10/29 08:25:10;;;;;;;2.60;1.50;;;;;;;14.37;56.93;96648.75;5046696;28;20472;-75
2023/10/29 08:27:37;;;;;;;1.53;1.17;;;;;;;14.29;57.85;96635.66;5045037;28;20469;-77
2023/10/29 08:30:04;;;;;;;1.37;1.20;;;;;;;14.28;58.27;96641.34;5048409;28;20563;-75
2023/10/29 08:32:32;;;;;;;1.60;1.20;;;;;;;14.40;61.43;96644.69;5047438;28;20459;-83
2023/10/29 08:34:59;;;;;;;1.33;1.23;;;;;;;14.39;59.03;96664.84;5037171;28;20461;-83
2023/10/29 08:37:26;;;;;;;1.77;1.20;;;;;;;14.44;59.08;96670.34;5044982;28;20447;-80
2023/10/29 08:39:59;;;;;;;2.53;1.40;;;;;;;14.33;59.60;96680.28;5047144;28;20455;-76
2023/10/29 08:42:25;;;;;;;1.40;1.30;;;;;;;14.20;60.15;96677.22;5041810;28;20441;-78
2023/10/29 08:44:56;;;;;;;1.93;1.33;;;;;;;14.10;60.64;96680.66;5040059;28;20460;-78
2023/10/29 08:47:22;;;;;;;1.50;1.40;;;;;;;14.28;59.24;96676.75;5042088;28;20553;-78
2023/10/29 08:49:49;;;;;;;2.00;1.30;;;;;;;14.25;59.60;96685.41;5047304;28;20533;-77
2023/10/29 08:52:15;;;;;;;1.47;1.10;;;;;;;14.40;59.35;96685.53;5048721;28;20564;-78
2023/10/29 08:54:42;;;;;;;1.73;0.90;;;;;;;14.42;59.80;96676.06;5041618;28;20537;-78
2023/10/29 08:57:10;;;;;;;1.20;1.10;;;;;;;14.55;58.85;96663.91;5046843;28;20466;-78
2023/10/29 08:59:36;;;;;;;1.90;1.57;;;;;;;14.75;58.93;96660.50;5051635;28;20458;-78
2023/10/29 09:02:03;;;;;;;1.37;1.17;;;;;;;14.93;58.64;96656.53;5044345;28;20517;-78
2023/10/29 09:04:30;;;;;;;1.67;1.57;;;;;;;15.05;58.47;96651.69;5046084;28;20458;-78
2023/10/29 09:06:56;;;;;;;2.00;1.10;;;;;;;15.04;59.06;96644.59;5043105;28;20681;-78
2023/10/29 09:09:23;;;;;;;1.60;1.50;;;;;;;14.72;60.12;96637.34;5041807;28;20558;-78
2023/10/29 09:11:53;;;;;;;1.40;1.30;;;;;;;14.82;60.00;96633.03;5044930;28;20484;-78
2023/10/29 09:14:22;;;;;;;1.43;1.10;;;;;;;14.86;60.98;96625.97;5038344;28;20942;-78
2023/10/29 09:16:49;;;;;;;2.40;1.47;;;;;;;15.03;60.61;96616.53;5042979;28;20441;-78
2023/10/29 09:19:15;;;;;;;3.27;1.53;;;;;;;15.19;60.56;96619.31;5040705;28;20578;-77
2023/10/29 09:21:42;;;;;;;1.87;1.50;;;;;;;15.09;61.15;96625.53;5038440;28;20485;-78
2023/10/29 09:24:09;;;;;;;3.00;1.20;;;;;;;15.03;61.25;96629.31;5040856;28;20456;-76
2023/10/29 09:26:36;;;;;;;1.63;1.53;;;;;;;15.24;60.93;96628.34;5039626;28;20477;-75
2023/10/29 09:29:03;;;;;;;3.40;1.60;;;;;;;15.09;61.80;96620.09;5044035;28;20561;-78
2023/10/29 09:31:31;;;;;;;1.70;1.27;;;;;;;14.75;62.46;96620.47;5039302;28;20496;-76
2023/10/29 09:33:57;;;;;;;1.60;1.40;;;;;;;14.58;63.12;96625.28;5038423;28;20553;-78
2023/10/29 09:36:24;;;;;;;2.80;1.27;;;;;;;14.59;63.26;96607.84;5037458;28;20462;-77
2023/10/29 09:38:51;;;;;;;2.80;1.80;;;;;;;14.49;63.91;96596.91;5035081;28;20993;-78
2023/10/29 09:41:18;;;;;;;3.27;1.60;;;;;;;14.40;62.88;96603.88;5037265;28;20484;-81
2023/10/29 09:43:46;;;;;;;1.90;1.60;;;;;;;14.39;62.21;96610.41;5039213;28;20445;-82
2023/10/29 09:46:13;;;;;;;2.00;1.60;;;;;;;13.96;62.86;96606.81;5039480;28;20450;-79
2023/10/29 09:48:43;;;;;;;1.93;1.70;;;;;;;13.99;63.69;96605.44;5044637;28;20579;-81
2023/10/29 09:51:10;;;;;;;3.10;1.50;;;;;;;14.00;65.02;96607.91;5043349;28;21057;-81
2023/10/29 09:53:39;;;;;;;2.07;1.97;;;;;;;13.88;65.77;96603.75;5035735;28;20531;-81
2023/10/29 09:56:07;;;;;;;2.20;2.00;;;;;;;13.96;66.12;96611.44;5029409;28;20954;-80
2023/10/29 09:58:34;;;;;;;3.20;2.03;;;;;;;13.94;65.96;96603.53;5034999;28;20519;-79
2023/10/29 10:01:03;;;;;;;2.87;2.37;;;;;;;13.85;66.83;96599.63;5025232;28;20591;-81
2023/10/29 10:03:29;;;;;;;2.10;1.90;;;;;;;13.81;67.44;96601.22;5014096;28;20820;-80
2023/10/29 10:05:58;;;;;;;2.10;1.80;;;;;;;13.77;68.01;96578.34;5016605;28;20441;-80
2023/10/29 10:08:25;;;;;;;3.07;2.60;;;;;;;13.77;67.62;96570.19;5015466;28;20964;-80
2023/10/29 10:10:52;;;;;;;2.53;2.33;;;;;;;13.69;68.54;96582.34;5022131;28;20492;-80
2023/10/29 10:13:19;;;;;;;3.10;2.10;;;;;;;13.74;68.22;96576.13;5018172;28;20476;-80
2023/10/29 10:15:47;;;;;;;2.40;2.20;;;;;;;13.84;67.78;96578.97;5022730;28;21330;-80
2023/10/29 10:18:14;;;;;;;3.83;1.90;;;;;;;13.73;67.67;96585.38;5020512;28;20457;-81
2023/10/29 10:20:41;;;;;;;2.17;1.97;;;;;;;13.84;67.32;96589.00;5023107;28;20484;-80
2023/10/29 10:23:11;;;;;;;2.43;1.80;;;;;;;13.92;66.64;96586.66;5024751;28;20462;-80
2023/10/29 10:25:38;;;;;;;2.30;2.07;;;;;;;13.99;66.59;96581.78;5024818;28;20525;-79
2023/10/29 10:28:05;;;;;;;3.87;1.80;;;;;;;14.01;65.85;96576.91;5024136;28;20459;-80
2023/10/29 10:30:34;;;;;;;4.90;2.13;;;;;;;13.89;65.81;96570.03;5038685;28;20477;-81
2023/10/29 10:33:11;;;;;;;2.30;1.83;;;;;;;13.95;65.53;96567.09;5023228;28;20611;-81
2023/10/29 10:35:39;;;;;;;1.90;1.50;;;;;;;13.95;66.55;96567.09;5027230;28;20456;-81
2023/10/29 10:38:06;;;;;;;2.13;1.60;;;;;;;14.04;65.91;96570.94;5022875;28;20463;-82
2023/10/29 10:40:33;;;;;;;2.53;1.77;;;;;;;14.07;66.06;96562.28;5022651;28;20484;-81
2023/10/29 10:43:01;;;;;;;2.40;1.63;;;;;;;14.19;64.84;96564.00;5024125;28;20452;-81
2023/10/29 10:45:29;;;;;;;1.40;1.30;;;;;;;14.28;64.39;96581.50;5019474;28;20468;-81
2023/10/29 10:47:57;;;;;;;1.67;1.57;;;;;;;14.25;64.26;96560.22;5021606;28;20921;-81
2023/10/29 10:50:25;;;;;;;1.90;1.70;;;;;;;14.38;63.68;96554.31;5030404;28;20464;-80
2023/10/29 10:52:52;;;;;;;1.83;1.73;;;;;;;14.31;63.47;96545.56;5029975;28;20568;-79
2023/10/29 10:55:19;;;;;;;1.50;1.40;;;;;;;14.30;63.30;96533.03;5034401;28;20558;-77
2023/10/29 10:57:48;;;;;;;1.40;1.30;;;;;;;14.23;63.61;96554.22;5042716;28;21172;-77
2023/10/29 11:00:16;;;;;;;2.00;1.80;;;;;;;14.48;63.42;96553.59;5043138;28;20512;-78
2023/10/29 11:02:43;;;;;;;1.80;1.67;;;;;;;14.54;63.08;96542.47;5046069;28;20519;-77
2023/10/29 11:05:11;;;;;;;1.90;1.50;;;;;;;14.62;63.05;96550.13;5042294;28;20475;-78
2023/10/29 11:07:38;;;;;;;1.67;1.50;;;;;;;14.80;62.69;96537.97;5041477;28;20453;-77
2023/10/29 11:10:05;;;;;;;2.30;1.57;;;;;;;14.72;63.32;96535.75;5041262;28;20464;-75
2023/10/29 11:12:33;;;;;;;1.67;1.30;;;;;;;14.88;62.44;96536.66;5039397;28;20569;-77
2023/10/29 11:15:15;;;;;;;1.80;1.70;;;;;;;14.81;62.50;96536.88;5046325;28;20513;-77
2023/10/29 11:17:51;;;;;;;1.80;1.53;;;;;;;14.95;62.90;96538.00;5047112;28;20468;-78
2023/10/29 11:20:51;;;;;;;2.40;1.90;;;;;;;15.05;63.30;96518.16;5045592;28;20592;-76
2023/10/29 11:23:23;;;;;;;1.87;1.77;;;;;;;14.83;63.58;96520.28;5045697;28;20458;-74
2023/10/29 11:25:50;;;;;;;4.77;2.10;;;;;;;14.95;63.70;96516.22;5039729;28;20457;-75
2023/10/29 11:28:44;;;;;;;1.70;1.50;;;;;;;15.02;62.70;96514.06;5046098;28;20462;-75
2023/10/29 11:31:19;;;;;;;2.60;2.07;;;;;;;15.17;62.35;96521.47;5047117;28;20486;-75
2023/10/29 11:33:47;;;;;;;2.00;1.90;;;;;;;15.28;62.14;96514.13;5045803;28;20458;-77